sensor_id;sensor_type;location;lat;lon;timestamp;temperature;humidity
76470;DHT22;65305;52.870;13.660;2023-07-30T00:02:03;21.70;72.30
76470;DHT22;65305;52.870;13.660;2023-07-30T00:04:30;21.70;72.20
76470;DHT22;65305;52.870;13.660;2023-07-30T00:06:57;21.60;72.20
76470;DHT22;65305;52.870;13.660;2023-07-30T00:09:23;21.60;72.30
76470;DHT22;65305;52.870;13.660;2023-07-30T00:11:50;21.50;72.20
76470;DHT22;65305;52.870;13.660;2023-07-30T00:14:16;21.60;72.10
76470;DHT22;65305;52.870;13.660;2023-07-30T00:16:43;21.60;72.00
76470;DHT22;65305;52.870;13.660;2023-07-30T00:19:09;21.60;71.80
76470;DHT22;65305;52.870;13.660;2023-07-30T00:21:36;21.60;71.90
76470;DHT22;65305;52.870;13.660;2023-07-30T00:24:03;21.60;71.70
76470;DHT22;65305;52.870;13.660;2023-07-30T00:26:29;21.60;71.80
76470;DHT22;65305;52.870;13.660;2023-07-30T00:28:56;21.50;71.80
76470;DHT22;65305;52.870;13.660;2023-07-30T00:31:22;21.50;71.80
76470;DHT22;65305;52.870;13.660;2023-07-30T00:33:49;21.50;71.80
76470;DHT22;65305;52.870;13.660;2023-07-30T00:36:16;21.50;71.90
76470;DHT22;65305;52.870;13.660;2023-07-30T00:38:42;21.50;71.80
76470;DHT22;65305;52.870;13.660;2023-07-30T00:41:15;21.50;71.70
76470;DHT22;65305;52.870;13.660;2023-07-30T00:43:42;21.50;71.70
76470;DHT22;65305;52.870;13.660;2023-07-30T00:46:08;21.50;71.20
76470;DHT22;65305;52.870;13.660;2023-07-30T00:48:35;21.50;71.40
76470;DHT22;65305;52.870;13.660;2023-07-30T00:51:01;21.50;71.50
76470;DHT22;65305;52.870;13.660;2023-07-30T00:53:28;21.50;71.80
76470;DHT22;65305;52.870;13.660;2023-07-30T00:55:55;21.50;71.30
76470;DHT22;65305;52.870;13.660;2023-07-30T00:58:21;21.50;71.30
76470;DHT22;65305;52.870;13.660;2023-07-30T01:00:49;21.50;71.40
76470;DHT22;65305;52.870;13.660;2023-07-30T01:03:16;21.50;71.50
76470;DHT22;65305;52.870;13.660;2023-07-30T01:05:44;21.40;71.40
76470;DHT22;65305;52.870;13.660;2023-07-30T01:08:10;21.40;71.50
76470;DHT22;65305;52.870;13.660;2023-07-30T01:10:37;21.40;71.50
76470;DHT22;65305;52.870;13.660;2023-07-30T01:13:04;21.40;71.20
76470;DHT22;65305;52.870;13.660;2023-07-30T01:15:32;21.40;71.40
76470;DHT22;65305;52.870;13.660;2023-07-30T01:17:58;21.40;71.20
76470;DHT22;65305;52.870;13.660;2023-07-30T01:20:29;21.30;71.20
76470;DHT22;65305;52.870;13.660;2023-07-30T01:22:56;21.30;71.30
76470;DHT22;65305;52.870;13.660;2023-07-30T01:25:22;21.30;71.20
76470;DHT22;65305;52.870;13.660;2023-07-30T01:27:51;21.30;71.20
76470;DHT22;65305;52.870;13.660;2023-07-30T01:30:21;21.40;71.20
76470;DHT22;65305;52.870;13.660;2023-07-30T01:32:49;21.40;71.20
76470;DHT22;65305;52.870;13.660;2023-07-30T01:35:16;21.40;71.10
76470;DHT22;65305;52.870;13.660;2023-07-30T01:37:44;21.30;71.00
76470;DHT22;65305;52.870;13.660;2023-07-30T01:40:10;21.30;71.10
76470;DHT22;65305;52.870;13.660;2023-07-30T01:42:37;21.30;71.10
76470;DHT22;65305;52.870;13.660;2023-07-30T01:45:04;21.30;70.90
76470;DHT22;65305;52.870;13.660;2023-07-30T01:47:31;21.20;71.10
76470;DHT22;65305;52.870;13.660;2023-07-30T01:49:57;21.20;71.10
76470;DHT22;65305;52.870;13.660;2023-07-30T01:52:24;21.20;71.10
76470;DHT22;65305;52.870;13.660;2023-07-30T01:54:50;21.20;70.90
76470;DHT22;65305;52.870;13.660;2023-07-30T01:57:17;21.20;70.90
76470;DHT22;65305;52.870;13.660;2023-07-30T01:59:43;21.20;70.90
76470;DHT22;65305;52.870;13.660;2023-07-30T02:02:10;21.20;71.10
76470;DHT22;65305;52.870;13.660;2023-07-30T02:04:37;21.10;71.10
76470;DHT22;65305;52.870;13.660;2023-07-30T02:07:03;21.10;71.00
76470;DHT22;65305;52.870;13.660;2023-07-30T02:09:30;21.10;71.10
76470;DHT22;65305;52.870;13.660;2023-07-30T02:11:56;21.10;70.90
76470;DHT22;65305;52.870;13.660;2023-07-30T02:14:22;21.10;70.80
76470;DHT22;65305;52.870;13.660;2023-07-30T02:16:49;21.10;70.90
76470;DHT22;65305;52.870;13.660;2023-07-30T02:19:15;21.10;70.80
76470;DHT22;65305;52.870;13.660;2023-07-30T02:21:42;21.10;70.90
76470;DHT22;65305;52.870;13.660;2023-07-30T02:24:09;21.10;70.70
76470;DHT22;65305;52.870;13.660;2023-07-30T02:26:40;21.10;70.70
76470;DHT22;65305;52.870;13.660;2023-07-30T02:29:07;21.10;70.60
76470;DHT22;65305;52.870;13.660;2023-07-30T02:31:34;21.10;70.90
76470;DHT22;65305;52.870;13.660;2023-07-30T02:34:00;21.10;70.70
76470;DHT22;65305;52.870;13.660;2023-07-30T02:36:26;21.10;70.80
76470;DHT22;65305;52.870;13.660;2023-07-30T02:38:53;21.10;70.80
76470;DHT22;65305;52.870;13.660;2023-07-30T02:41:20;21.10;70.80
76470;DHT22;65305;52.870;13.660;2023-07-30T02:43:46;21.00;70.70
76470;DHT22;65305;52.870;13.660;2023-07-30T02:46:13;21.00;70.60
76470;DHT22;65305;52.870;13.660;2023-07-30T02:48:39;20.90;70.60
76470;DHT22;65305;52.870;13.660;2023-07-30T02:51:06;20.90;70.70
76470;DHT22;65305;52.870;13.660;2023-07-30T02:53:32;20.90;70.60
76470;DHT22;65305;52.870;13.660;2023-07-30T02:55:58;20.90;70.80
76470;DHT22;65305;52.870;13.660;2023-07-30T02:58:24;21.00;70.70
76470;DHT22;65305;52.870;13.660;2023-07-30T03:01:04;21.00;70.70
76470;DHT22;65305;52.870;13.660;2023-07-30T03:03:42;21.00;70.70
76470;DHT22;65305;52.870;13.660;2023-07-30T03:06:23;21.00;70.70
76470;DHT22;65305;52.870;13.660;2023-07-30T03:09:05;21.00;70.50
76470;DHT22;65305;52.870;13.660;2023-07-30T03:11:33;20.90;70.50
76470;DHT22;65305;52.870;13.660;2023-07-30T03:14:02;20.90;70.60
76470;DHT22;65305;52.870;13.660;2023-07-30T03:16:36;20.90;70.50
76470;DHT22;65305;52.870;13.660;2023-07-30T03:19:07;20.90;70.30
76470;DHT22;65305;52.870;13.660;2023-07-30T03:21:39;20.80;70.60
76470;DHT22;65305;52.870;13.660;2023-07-30T03:24:06;20.80;70.50
76470;DHT22;65305;52.870;13.660;2023-07-30T03:26:32;20.80;70.50
76470;DHT22;65305;52.870;13.660;2023-07-30T03:28:59;20.80;70.50
76470;DHT22;65305;52.870;13.660;2023-07-30T03:31:25;20.90;70.40
76470;DHT22;65305;52.870;13.660;2023-07-30T03:33:55;20.90;70.40
76470;DHT22;65305;52.870;13.660;2023-07-30T03:36:21;20.90;70.40
76470;DHT22;65305;52.870;13.660;2023-07-30T03:38:47;20.80;70.50
76470;DHT22;65305;52.870;13.660;2023-07-30T03:41:14;20.80;70.50
76470;DHT22;65305;52.870;13.660;2023-07-30T03:43:40;20.80;70.50
76470;DHT22;65305;52.870;13.660;2023-07-30T03:46:10;20.80;70.60
76470;DHT22;65305;52.870;13.660;2023-07-30T03:48:36;20.80;70.40
76470;DHT22;65305;52.870;13.660;2023-07-30T03:51:04;20.80;70.20
76470;DHT22;65305;52.870;13.660;2023-07-30T03:53:33;20.70;70.20
76470;DHT22;65305;52.870;13.660;2023-07-30T03:55:59;20.70;70.30
76470;DHT22;65305;52.870;13.660;2023-07-30T03:58:26;20.70;70.50
76470;DHT22;65305;52.870;13.660;2023-07-30T04:00:52;20.70;70.50
76470;DHT22;65305;52.870;13.660;2023-07-30T04:03:19;20.70;70.40
76470;DHT22;65305;52.870;13.660;2023-07-30T04:05:45;20.70;70.30
76470;DHT22;65305;52.870;13.660;2023-07-30T04:08:12;20.70;70.40
76470;DHT22;65305;52.870;13.660;2023-07-30T04:10:38;20.70;70.40
76470;DHT22;65305;52.870;13.660;2023-07-30T04:13:05;20.70;70.40
76470;DHT22;65305;52.870;13.660;2023-07-30T04:15:33;20.70;70.40
76470;DHT22;65305;52.870;13.660;2023-07-30T04:18:00;20.70;70.50
76470;DHT22;65305;52.870;13.660;2023-07-30T04:20:27;20.70;70.50
76470;DHT22;65305;52.870;13.660;2023-07-30T04:22:53;20.70;70.10
76470;DHT22;65305;52.870;13.660;2023-07-30T04:25:20;20.70;70.10
76470;DHT22;65305;52.870;13.660;2023-07-30T04:27:46;20.70;70.30
76470;DHT22;65305;52.870;13.660;2023-07-30T04:30:13;20.70;70.30
76470;DHT22;65305;52.870;13.660;2023-07-30T04:32:39;20.70;70.30
76470;DHT22;65305;52.870;13.660;2023-07-30T04:35:06;20.70;70.40
76470;DHT22;65305;52.870;13.660;2023-07-30T04:37:33;20.70;70.30
76470;DHT22;65305;52.870;13.660;2023-07-30T04:39:59;20.70;70.30
76470;DHT22;65305;52.870;13.660;2023-07-30T04:42:26;20.70;70.30
76470;DHT22;65305;52.870;13.660;2023-07-30T04:44:52;20.70;70.40
76470;DHT22;65305;52.870;13.660;2023-07-30T04:47:19;20.70;70.50
76470;DHT22;65305;52.870;13.660;2023-07-30T04:49:45;20.60;70.40
76470;DHT22;65305;52.870;13.660;2023-07-30T04:52:12;20.60;70.40
76470;DHT22;65305;52.870;13.660;2023-07-30T04:54:38;20.60;70.40
76470;DHT22;65305;52.870;13.660;2023-07-30T04:57:05;20.60;70.40
76470;DHT22;65305;52.870;13.660;2023-07-30T04:59:31;20.60;70.50
76470;DHT22;65305;52.870;13.660;2023-07-30T05:01:59;20.60;70.50
76470;DHT22;65305;52.870;13.660;2023-07-30T05:04:26;20.60;70.90
76470;DHT22;65305;52.870;13.660;2023-07-30T05:06:52;20.60;70.60
76470;DHT22;65305;52.870;13.660;2023-07-30T05:09:19;20.70;70.90
76470;DHT22;65305;52.870;13.660;2023-07-30T05:11:46;20.70;70.30
76470;DHT22;65305;52.870;13.660;2023-07-30T05:14:12;20.70;70.00
76470;DHT22;65305;52.870;13.660;2023-07-30T05:16:38;20.70;69.80
76470;DHT22;65305;52.870;13.660;2023-07-30T05:19:04;20.70;69.60
76470;DHT22;65305;52.870;13.660;2023-07-30T05:21:31;20.70;69.50
76470;DHT22;65305;52.870;13.660;2023-07-30T05:23:57;20.70;69.50
76470;DHT22;65305;52.870;13.660;2023-07-30T05:26:26;20.70;69.50
76470;DHT22;65305;52.870;13.660;2023-07-30T05:28:53;20.60;69.40
76470;DHT22;65305;52.870;13.660;2023-07-30T05:31:20;20.70;69.40
76470;DHT22;65305;52.870;13.660;2023-07-30T05:33:46;20.60;69.40
76470;DHT22;65305;52.870;13.660;2023-07-30T05:36:12;20.70;69.30
76470;DHT22;65305;52.870;13.660;2023-07-30T05:38:39;20.70;69.40
76470;DHT22;65305;52.870;13.660;2023-07-30T05:41:05;20.60;69.40
76470;DHT22;65305;52.870;13.660;2023-07-30T05:43:32;20.60;69.40
76470;DHT22;65305;52.870;13.660;2023-07-30T05:45:58;20.60;69.40
76470;DHT22;65305;52.870;13.660;2023-07-30T05:48:24;20.60;69.50
76470;DHT22;65305;52.870;13.660;2023-07-30T05:50:51;20.60;69.60
76470;DHT22;65305;52.870;13.660;2023-07-30T05:53:17;20.60;69.70
76470;DHT22;65305;52.870;13.660;2023-07-30T05:55:44;20.60;69.50
76470;DHT22;65305;52.870;13.660;2023-07-30T05:58:10;20.60;69.80
76470;DHT22;65305;52.870;13.660;2023-07-30T06:00:37;20.60;69.80
76470;DHT22;65305;52.870;13.660;2023-07-30T06:03:03;20.60;69.90
76470;DHT22;65305;52.870;13.660;2023-07-30T06:05:32;20.60;69.90
76470;DHT22;65305;52.870;13.660;2023-07-30T06:07:58;20.60;70.10
76470;DHT22;65305;52.870;13.660;2023-07-30T06:10:25;20.60;70.10
76470;DHT22;65305;52.870;13.660;2023-07-30T06:12:52;20.50;70.10
76470;DHT22;65305;52.870;13.660;2023-07-30T06:15:18;20.50;70.20
76470;DHT22;65305;52.870;13.660;2023-07-30T06:17:45;20.50;70.40
76470;DHT22;65305;52.870;13.660;2023-07-30T06:20:12;20.50;70.60
76470;DHT22;65305;52.870;13.660;2023-07-30T06:22:38;20.50;70.70
76470;DHT22;65305;52.870;13.660;2023-07-30T06:25:05;20.50;70.70
76470;DHT22;65305;52.870;13.660;2023-07-30T06:27:31;20.50;70.70
76470;DHT22;65305;52.870;13.660;2023-07-30T06:29:58;20.50;70.80
76470;DHT22;65305;52.870;13.660;2023-07-30T06:32:24;20.50;71.00
76470;DHT22;65305;52.870;13.660;2023-07-30T06:35:08;20.50;71.20
76470;DHT22;65305;52.870;13.660;2023-07-30T06:37:35;20.50;71.20
76470;DHT22;65305;52.870;13.660;2023-07-30T06:40:01;20.50;71.10
76470;DHT22;65305;52.870;13.660;2023-07-30T06:42:32;20.50;71.20
76470;DHT22;65305;52.870;13.660;2023-07-30T06:44:59;20.50;71.10
76470;DHT22;65305;52.870;13.660;2023-07-30T06:47:25;20.50;71.00
76470;DHT22;65305;52.870;13.660;2023-07-30T06:49:52;20.50;71.50
76470;DHT22;65305;52.870;13.660;2023-07-30T06:52:18;20.50;71.70
76470;DHT22;65305;52.870;13.660;2023-07-30T06:54:46;20.50;71.90
76470;DHT22;65305;52.870;13.660;2023-07-30T06:57:12;20.40;71.70
76470;DHT22;65305;52.870;13.660;2023-07-30T06:59:39;20.40;71.90
76470;DHT22;65305;52.870;13.660;2023-07-30T07:02:05;20.30;71.80
76470;DHT22;65305;52.870;13.660;2023-07-30T07:04:32;20.30;71.70
76470;DHT22;65305;52.870;13.660;2023-07-30T07:07:04;20.30;72.00
76470;DHT22;65305;52.870;13.660;2023-07-30T07:09:34;20.30;71.90
76470;DHT22;65305;52.870;13.660;2023-07-30T07:12:06;20.30;71.90
76470;DHT22;65305;52.870;13.660;2023-07-30T07:14:32;20.30;72.20
76470;DHT22;65305;52.870;13.660;2023-07-30T07:16:59;20.30;72.60
76470;DHT22;65305;52.870;13.660;2023-07-30T07:19:25;20.30;72.80
76470;DHT22;65305;52.870;13.660;2023-07-30T07:21:52;20.30;72.60
76470;DHT22;65305;52.870;13.660;2023-07-30T07:24:19;20.30;72.20
76470;DHT22;65305;52.870;13.660;2023-07-30T07:26:45;20.30;72.00
76470;DHT22;65305;52.870;13.660;2023-07-30T07:29:12;20.30;72.40
76470;DHT22;65305;52.870;13.660;2023-07-30T07:31:38;20.30;72.40
76470;DHT22;65305;52.870;13.660;2023-07-30T07:34:05;20.30;72.10
76470;DHT22;65305;52.870;13.660;2023-07-30T07:36:31;20.30;72.20
76470;DHT22;65305;52.870;13.660;2023-07-30T07:38:58;20.30;72.80
76470;DHT22;65305;52.870;13.660;2023-07-30T07:41:24;20.30;72.40
76470;DHT22;65305;52.870;13.660;2023-07-30T07:43:51;20.30;73.10
76470;DHT22;65305;52.870;13.660;2023-07-30T07:46:19;20.30;72.90
76470;DHT22;65305;52.870;13.660;2023-07-30T07:48:46;20.30;73.10
76470;DHT22;65305;52.870;13.660;2023-07-30T07:51:13;20.30;72.60
76470;DHT22;65305;52.870;13.660;2023-07-30T07:53:39;20.40;72.10
76470;DHT22;65305;52.870;13.660;2023-07-30T07:56:07;20.40;72.20
76470;DHT22;65305;52.870;13.660;2023-07-30T07:58:33;20.50;72.50
76470;DHT22;65305;52.870;13.660;2023-07-30T08:00:59;20.50;72.60
76470;DHT22;65305;52.870;13.660;2023-07-30T08:03:26;20.50;72.60
76470;DHT22;65305;52.870;13.660;2023-07-30T08:05:53;20.50;72.40
76470;DHT22;65305;52.870;13.660;2023-07-30T08:08:19;20.50;72.20
76470;DHT22;65305;52.870;13.660;2023-07-30T08:10:46;20.50;72.40
76470;DHT22;65305;52.870;13.660;2023-07-30T08:13:13;20.50;72.50
76470;DHT22;65305;52.870;13.660;2023-07-30T08:15:40;20.50;72.30
76470;DHT22;65305;52.870;13.660;2023-07-30T08:18:06;20.50;72.20
76470;DHT22;65305;52.870;13.660;2023-07-30T08:20:32;20.50;72.20
76470;DHT22;65305;52.870;13.660;2023-07-30T08:22:59;20.50;72.10
76470;DHT22;65305;52.870;13.660;2023-07-30T08:25:25;20.50;72.10
76470;DHT22;65305;52.870;13.660;2023-07-30T08:27:52;20.50;72.10
76470;DHT22;65305;52.870;13.660;2023-07-30T08:30:18;20.50;72.20
76470;DHT22;65305;52.870;13.660;2023-07-30T08:32:45;20.50;72.20
76470;DHT22;65305;52.870;13.660;2023-07-30T08:35:11;20.50;72.10
76470;DHT22;65305;52.870;13.660;2023-07-30T08:37:38;20.50;72.00
76470;DHT22;65305;52.870;13.660;2023-07-30T08:40:05;20.50;71.80
76470;DHT22;65305;52.870;13.660;2023-07-30T08:42:32;20.50;71.90
76470;DHT22;65305;52.870;13.660;2023-07-30T08:44:59;20.50;71.70
76470;DHT22;65305;52.870;13.660;2023-07-30T08:47:25;20.50;71.70
76470;DHT22;65305;52.870;13.660;2023-07-30T08:49:52;20.50;71.60
76470;DHT22;65305;52.870;13.660;2023-07-30T08:52:19;20.50;71.80
76470;DHT22;65305;52.870;13.660;2023-07-30T08:54:46;20.50;71.60
76470;DHT22;65305;52.870;13.660;2023-07-30T08:57:14;20.50;72.00
76470;DHT22;65305;52.870;13.660;2023-07-30T08:59:42;20.50;71.80
76470;DHT22;65305;52.870;13.660;2023-07-30T09:02:20;20.50;71.60
76470;DHT22;65305;52.870;13.660;2023-07-30T09:04:47;20.50;71.50
76470;DHT22;65305;52.870;13.660;2023-07-30T09:07:19;20.50;71.50
76470;DHT22;65305;52.870;13.660;2023-07-30T09:09:45;20.50;71.30
76470;DHT22;65305;52.870;13.660;2023-07-30T09:12:13;20.50;71.20
76470;DHT22;65305;52.870;13.660;2023-07-30T09:14:39;20.50;71.20
76470;DHT22;65305;52.870;13.660;2023-07-30T09:17:06;20.50;70.60
76470;DHT22;65305;52.870;13.660;2023-07-30T09:19:35;20.50;70.70
76470;DHT22;65305;52.870;13.660;2023-07-30T09:22:05;20.50;70.70
76470;DHT22;65305;52.870;13.660;2023-07-30T09:24:32;20.50;70.60
76470;DHT22;65305;52.870;13.660;2023-07-30T09:27:02;20.50;70.50
76470;DHT22;65305;52.870;13.660;2023-07-30T09:29:29;20.50;70.30
76470;DHT22;65305;52.870;13.660;2023-07-30T09:31:55;20.50;70.20
76470;DHT22;65305;52.870;13.660;2023-07-30T09:34:23;20.50;70.20
76470;DHT22;65305;52.870;13.660;2023-07-30T09:36:52;20.50;69.50
76470;DHT22;65305;52.870;13.660;2023-07-30T09:39:22;20.50;68.40
76470;DHT22;65305;52.870;13.660;2023-07-30T09:41:49;20.50;69.10
76470;DHT22;65305;52.870;13.660;2023-07-30T09:44:20;20.50;69.30
76470;DHT22;65305;52.870;13.660;2023-07-30T09:46:47;20.50;69.00
76470;DHT22;65305;52.870;13.660;2023-07-30T09:49:14;20.50;69.00
76470;DHT22;65305;52.870;13.660;2023-07-30T09:51:41;20.50;69.10
76470;DHT22;65305;52.870;13.660;2023-07-30T09:54:12;20.50;68.80
76470;DHT22;65305;52.870;13.660;2023-07-30T09:56:39;20.50;69.00
76470;DHT22;65305;52.870;13.660;2023-07-30T09:59:06;20.50;68.80
76470;DHT22;65305;52.870;13.660;2023-07-30T10:01:32;20.50;68.90
76470;DHT22;65305;52.870;13.660;2023-07-30T10:04:03;20.50;69.00
76470;DHT22;65305;52.870;13.660;2023-07-30T10:06:38;20.50;68.90
76470;DHT22;65305;52.870;13.660;2023-07-30T10:09:07;20.50;69.10
76470;DHT22;65305;52.870;13.660;2023-07-30T10:11:35;20.50;68.70
76470;DHT22;65305;52.870;13.660;2023-07-30T10:14:04;20.50;68.70
76470;DHT22;65305;52.870;13.660;2023-07-30T10:16:39;20.50;68.50
76470;DHT22;65305;52.870;13.660;2023-07-30T10:19:16;20.50;68.40
76470;DHT22;65305;52.870;13.660;2023-07-30T10:21:44;20.50;68.00
76470;DHT22;65305;52.870;13.660;2023-07-30T10:24:10;20.50;67.80
76470;DHT22;65305;52.870;13.660;2023-07-30T10:26:37;20.50;67.70
76470;DHT22;65305;52.870;13.660;2023-07-30T10:29:13;20.50;67.50
76470;DHT22;65305;52.870;13.660;2023-07-30T10:31:53;20.50;67.60
76470;DHT22;65305;52.870;13.660;2023-07-30T10:34:21;20.50;68.00
76470;DHT22;65305;52.870;13.660;2023-07-30T10:36:51;20.50;67.70
76470;DHT22;65305;52.870;13.660;2023-07-30T10:39:26;20.50;68.00
76470;DHT22;65305;52.870;13.660;2023-07-30T10:41:54;20.50;68.00
76470;DHT22;65305;52.870;13.660;2023-07-30T10:46:51;20.50;68.20
76470;DHT22;65305;52.870;13.660;2023-07-30T10:49:18;20.50;68.20
76470;DHT22;65305;52.870;13.660;2023-07-30T10:51:44;20.50;68.30
76470;DHT22;65305;52.870;13.660;2023-07-30T10:54:11;20.50;67.90
76470;DHT22;65305;52.870;13.660;2023-07-30T10:56:38;20.50;68.20
76470;DHT22;65305;52.870;13.660;2023-07-30T10:59:06;20.50;68.20
76470;DHT22;65305;52.870;13.660;2023-07-30T11:01:37;20.50;68.20
76470;DHT22;65305;52.870;13.660;2023-07-30T11:04:18;20.50;68.10
76470;DHT22;65305;52.870;13.660;2023-07-30T11:06:45;20.50;68.10
76470;DHT22;65305;52.870;13.660;2023-07-30T11:09:19;20.50;68.00
76470;DHT22;65305;52.870;13.660;2023-07-30T11:11:46;20.50;67.70
76470;DHT22;65305;52.870;13.660;2023-07-30T11:14:15;20.50;67.60
76470;DHT22;65305;52.870;13.660;2023-07-30T11:16:49;20.60;67.30
76470;DHT22;65305;52.870;13.660;2023-07-30T11:19:16;20.60;66.90
76470;DHT22;65305;52.870;13.660;2023-07-30T11:21:46;20.60;66.90
76470;DHT22;65305;52.870;13.660;2023-07-30T11:24:12;20.70;66.50
76470;DHT22;65305;52.870;13.660;2023-07-30T11:26:39;20.70;66.50
76470;DHT22;65305;52.870;13.660;2023-07-30T11:29:17;20.70;66.50
76470;DHT22;65305;52.870;13.660;2023-07-30T11:31:44;20.70;67.00
76470;DHT22;65305;52.870;13.660;2023-07-30T11:34:11;20.70;67.20
76470;DHT22;65305;52.870;13.660;2023-07-30T11:36:37;20.70;66.20
76470;DHT22;65305;52.870;13.660;2023-07-30T11:39:04;20.80;66.40
76470;DHT22;65305;52.870;13.660;2023-07-30T11:41:30;20.80;66.30
76470;DHT22;65305;52.870;13.660;2023-07-30T11:43:57;20.80;66.70
76470;DHT22;65305;52.870;13.660;2023-07-30T11:46:25;20.80;66.70
76470;DHT22;65305;52.870;13.660;2023-07-30T11:48:52;20.80;67.00
76470;DHT22;65305;52.870;13.660;2023-07-30T11:51:23;20.80;66.90
76470;DHT22;65305;52.870;13.660;2023-07-30T11:53:58;20.80;67.10
76470;DHT22;65305;52.870;13.660;2023-07-30T11:56:31;20.90;66.60
76470;DHT22;65305;52.870;13.660;2023-07-30T11:59:00;20.90;66.20
76470;DHT22;65305;52.870;13.660;2023-07-30T12:01:30;20.90;65.50
76470;DHT22;65305;52.870;13.660;2023-07-30T12:03:56;20.90;65.70
76470;DHT22;65305;52.870;13.660;2023-07-30T12:06:23;20.90;65.00
76470;DHT22;65305;52.870;13.660;2023-07-30T12:08:51;21.00;64.70
76470;DHT22;65305;52.870;13.660;2023-07-30T12:11:18;21.00;65.30
76470;DHT22;65305;52.870;13.660;2023-07-30T12:13:52;21.00;65.30
76470;DHT22;65305;52.870;13.660;2023-07-30T12:16:37;21.00;64.90
76470;DHT22;65305;52.870;13.660;2023-07-30T12:19:11;21.00;65.30
76470;DHT22;65305;52.870;13.660;2023-07-30T12:21:37;21.00;65.10
76470;DHT22;65305;52.870;13.660;2023-07-30T12:24:04;21.00;65.20
76470;DHT22;65305;52.870;13.660;2023-07-30T12:26:31;21.00;65.00
76470;DHT22;65305;52.870;13.660;2023-07-30T12:29:00;21.00;64.90
76470;DHT22;65305;52.870;13.660;2023-07-30T12:31:43;21.00;65.10
76470;DHT22;65305;52.870;13.660;2023-07-30T12:34:32;21.00;65.40
76470;DHT22;65305;52.870;13.660;2023-07-30T12:37:06;21.00;64.90
76470;DHT22;65305;52.870;13.660;2023-07-30T12:39:37;21.00;64.70
76470;DHT22;65305;52.870;13.660;2023-07-30T12:42:04;21.00;63.90
76470;DHT22;65305;52.870;13.660;2023-07-30T12:44:31;21.00;63.60
76470;DHT22;65305;52.870;13.660;2023-07-30T12:46:58;21.10;63.90
76470;DHT22;65305;52.870;13.660;2023-07-30T12:49:25;21.00;63.60
76470;DHT22;65305;52.870;13.660;2023-07-30T12:51:51;21.10;64.00
76470;DHT22;65305;52.870;13.660;2023-07-30T12:54:18;21.10;62.80
76470;DHT22;65305;52.870;13.660;2023-07-30T12:56:44;21.10;62.80
76470;DHT22;65305;52.870;13.660;2023-07-30T12:59:11;21.10;63.00
76470;DHT22;65305;52.870;13.660;2023-07-30T13:01:38;21.20;61.80
76470;DHT22;65305;52.870;13.660;2023-07-30T13:04:05;21.20;61.60
76470;DHT22;65305;52.870;13.660;2023-07-30T13:06:33;21.20;62.60
76470;DHT22;65305;52.870;13.660;2023-07-30T13:09:00;21.20;61.90
76470;DHT22;65305;52.870;13.660;2023-07-30T13:11:26;21.10;62.10
76470;DHT22;65305;52.870;13.660;2023-07-30T13:13:53;21.20;62.40
76470;DHT22;65305;52.870;13.660;2023-07-30T13:16:19;21.20;62.00
76470;DHT22;65305;52.870;13.660;2023-07-30T13:18:46;21.30;61.30
76470;DHT22;65305;52.870;13.660;2023-07-30T13:21:12;21.30;62.30
76470;DHT22;65305;52.870;13.660;2023-07-30T13:23:39;21.30;62.10
76470;DHT22;65305;52.870;13.660;2023-07-30T13:26:05;21.30;61.80
76470;DHT22;65305;52.870;13.660;2023-07-30T13:28:32;21.30;62.70
76470;DHT22;65305;52.870;13.660;2023-07-30T13:30:58;21.30;62.00
76470;DHT22;65305;52.870;13.660;2023-07-30T13:33:25;21.30;61.20
76470;DHT22;65305;52.870;13.660;2023-07-30T13:35:51;21.30;62.00
76470;DHT22;65305;52.870;13.660;2023-07-30T13:38:18;21.30;62.20
76470;DHT22;65305;52.870;13.660;2023-07-30T13:40:47;21.30;62.30
76470;DHT22;65305;52.870;13.660;2023-07-30T13:43:13;21.20;62.80
76470;DHT22;65305;52.870;13.660;2023-07-30T13:45:40;21.20;62.90
76470;DHT22;65305;52.870;13.660;2023-07-30T13:48:06;21.20;63.00
76470;DHT22;65305;52.870;13.660;2023-07-30T13:50:33;21.10;63.00
76470;DHT22;65305;52.870;13.660;2023-07-30T13:52:59;21.10;62.20
76470;DHT22;65305;52.870;13.660;2023-07-30T13:55:26;21.20;62.60
76470;DHT22;65305;52.870;13.660;2023-07-30T13:57:52;21.20;62.70
76470;DHT22;65305;52.870;13.660;2023-07-30T14:00:19;21.20;63.10
76470;DHT22;65305;52.870;13.660;2023-07-30T14:02:46;21.10;63.10
76470;DHT22;65305;52.870;13.660;2023-07-30T14:05:12;21.10;63.30
76470;DHT22;65305;52.870;13.660;2023-07-30T14:07:39;21.20;63.30
76470;DHT22;65305;52.870;13.660;2023-07-30T14:10:06;21.10;63.30
76470;DHT22;65305;52.870;13.660;2023-07-30T14:12:33;21.20;63.10
76470;DHT22;65305;52.870;13.660;2023-07-30T14:15:01;21.20;62.90
76470;DHT22;65305;52.870;13.660;2023-07-30T14:17:28;21.20;63.00
76470;DHT22;65305;52.870;13.660;2023-07-30T14:19:54;21.20;63.10
76470;DHT22;65305;52.870;13.660;2023-07-30T14:22:21;21.30;63.00
76470;DHT22;65305;52.870;13.660;2023-07-30T14:24:48;21.20;62.80
76470;DHT22;65305;52.870;13.660;2023-07-30T14:27:15;21.20;62.90
76470;DHT22;65305;52.870;13.660;2023-07-30T14:29:42;21.20;62.30
76470;DHT22;65305;52.870;13.660;2023-07-30T14:32:08;21.30;63.00
76470;DHT22;65305;52.870;13.660;2023-07-30T14:34:35;21.30;63.00
76470;DHT22;65305;52.870;13.660;2023-07-30T14:37:02;21.20;63.00
76470;DHT22;65305;52.870;13.660;2023-07-30T14:39:29;21.20;63.20
76470;DHT22;65305;52.870;13.660;2023-07-30T14:41:55;21.20;63.20
76470;DHT22;65305;52.870;13.660;2023-07-30T14:44:22;21.30;62.30
76470;DHT22;65305;52.870;13.660;2023-07-30T14:46:48;21.30;62.20
76470;DHT22;65305;52.870;13.660;2023-07-30T14:49:15;21.30;62.40
76470;DHT22;65305;52.870;13.660;2023-07-30T14:51:42;21.30;61.90
76470;DHT22;65305;52.870;13.660;2023-07-30T14:54:08;21.30;62.30
76470;DHT22;65305;52.870;13.660;2023-07-30T14:56:36;21.30;62.20
76470;DHT22;65305;52.870;13.660;2023-07-30T14:59:02;21.30;62.10
76470;DHT22;65305;52.870;13.660;2023-07-30T15:01:29;21.30;62.50
76470;DHT22;65305;52.870;13.660;2023-07-30T15:03:56;21.30;61.60
76470;DHT22;65305;52.870;13.660;2023-07-30T15:06:24;21.30;61.60
76470;DHT22;65305;52.870;13.660;2023-07-30T15:08:51;21.40;61.40
76470;DHT22;65305;52.870;13.660;2023-07-30T15:11:18;21.30;61.50
76470;DHT22;65305;52.870;13.660;2023-07-30T15:13:45;21.40;61.70
76470;DHT22;65305;52.870;13.660;2023-07-30T15:16:12;21.30;60.90
76470;DHT22;65305;52.870;13.660;2023-07-30T15:18:41;21.30;61.20
76470;DHT22;65305;52.870;13.660;2023-07-30T15:21:12;21.30;60.30